• Join FlightAware (Why Join?)
  • Login
  • US Flag 
Trick or treat! (Boo!!) 
06:22PM EDT


 

Airport Tracker/Info


-or-


 

Live Flight TrackerFlight Track Log ✈ GGN7282 ✈ 01-Sep-2013 ✈ CYYZ - KALB

Flight Track Log - Related Links

Times and Time Zones

All times are in EDT time to prevent confusion due to time zone crossing. See the GGN7282 flight status page for this flight to view local times or setup timezone preferences in your user account.

Time Position Orientation Groundspeed Altitude Reporting Facility
EDT Latitude Longitude Course Direction KTS MPH feet Rate Location/Type
03:46PM 43.6667 -79.6500 36° Northeast 10 12 600  Level Toronto Center
03:47PM 43.6833 -79.6333 36° Northeast 130 150 1,200 1,020 Climbing Toronto Center
03:48PM 43.7000 -79.5667 71° East 180 207 2,700 1,800 Climbing Toronto Center
03:49PM 43.7167 -79.5000 71° East 190 219 4,800 1,680 Climbing Toronto Center
03:50PM 43.7333 -79.4333 71° East 220 253 6,100 720 Climbing Toronto Center
03:51PM 43.7333 -79.3333 90° East 260 299 6,300 780 Climbing Toronto Center
03:52PM 43.7000 -79.2333 115° Southeast 240 276 7,700 840 Climbing Toronto Center
03:53PM 43.6500 -79.1667 136° Southeast 240 276 8,000 120 Climbing Toronto Center
03:54PM 43.6000 -79.1000 136° Southeast 260 299 8,000 360 Level Toronto Center
03:55PM 43.5500 -79.0500 144° Southeast 260 299 8,800 1,020 Climbing Toronto Center
03:56PM 43.5333 -78.9500 103° East 250 288 10,100 1,200 Climbing Toronto Center
03:57PM 43.5167 -78.8500 103° East 250 288 11,300 1,260 Climbing Toronto Center
03:58PM 43.5000 -78.7667 105° East 250 288 12,700 1,200 Climbing Toronto Center
03:59PM 43.5000 -78.6667 90° East 250 288 13,800 1,140 Climbing Toronto Center
04:00PM 43.4833 -78.5833 105° East 260 299 15,000 1,140 Climbing Toronto Center
04:01PM 43.4500 -78.4667 111° Southeast 270 311 16,100 1,080 Climbing Toronto Center
04:02PM 43.4333 -78.3667 103° East 270 311 17,200 1,020 Climbing Toronto Center
04:03PM 43.4533 -78.3300 53° Northeast 264 304 17,800 960 Climbing Cleveland Center
04:04PM 43.4367 -78.2247 102° East 269 310 18,800 600 Climbing Cleveland Center
04:05PM 43.4217 -78.1167 101° East 280 322 19,000 60 Climbing Cleveland Center
04:06PM 43.4069 -78.0028 100° East 292 336 19,000  Level Cleveland Center
04:07PM 43.3917 -77.8892 100° East 297 342 19,000  Level Cleveland Center
04:08PM 43.3767 -77.7786 101° East 297 342 19,000  Level Cleveland Center
04:09PM 43.3614 -77.6678 101° East 297 342 19,000  Level Cleveland Center
04:10PM 43.3439 -77.5572 102° East 297 342 19,000  Level Cleveland Center
04:11PM 43.3283 -77.4381 100° East 297 342 19,000  Level Cleveland Center
04:12PM 43.3008 -77.2653 102° East 290 334 19,000  Level Boston Center
04:13PM 43.2867 -77.1558 100° East 290 334 19,000  Level Boston Center
04:14PM 43.2667 -77.0500 105° East 290 334 19,000  Level Toronto Center
04:15PM 43.2500 -76.9333 101° East 290 334 19,000  Level Toronto Center
04:16PM 43.2333 -76.8333 103° East 290 334 19,000  Level Toronto Center
04:17PM 43.2167 -76.7000 100° East 290 334 19,000  Level Toronto Center
04:18PM 43.2000 -76.6333 109° East 290 334 19,000  Level Toronto Center
04:19PM 43.1833 -76.5000 100° East 290 334 19,000  Level Toronto Center
04:21PM 43.1606 -76.2975 99° East 280 322 19,000  Level Boston Center
04:22PM 43.1433 -76.1881 102° East 280 322 19,000  Level Boston Center
04:23PM 43.1281 -76.0819 101° East 280 322 19,000  Level Boston Center
04:24PM 43.1106 -75.9728 102° East 280 322 19,000  Level Boston Center
04:25PM 43.0928 -75.8694 103° East 280 322 19,000 -660 Level Boston Center
04:26PM 43.0753 -75.7547 102° East 285 328 17,800 -1,020 Descending Boston Center
04:27PM 43.0556 -75.6428 104° East 295 339 17,000 -420 Descending Boston Center
04:28PM 43.0397 -75.5367 102° East 295 339 17,000  Level Boston Center
04:29PM 43.0258 -75.4422 101° East 295 339 17,000  Level Boston Center
04:30PM 43.0056 -75.3361 105° East 284 327 17,000  Level Boston Center
04:31PM 42.9914 -75.2306 100° East 279 321 17,000  Level Boston Center
04:32PM 42.9731 -75.1275 104° East 279 321 17,000 -660 Level Boston Center
04:33PM 42.9547 -75.0161 103° East 284 327 15,800 -1,380 Descending Boston Center
04:34PM 42.9386 -74.9047 101° East 289 333 14,300 -1,620 Descending Boston Center
04:35PM 42.9142 -74.7819 105° East 300 345 12,600 -1,620 Descending Boston Center
04:36PM 42.9050 -74.7192 101° East 294 338 11,700 -840 Descending Boston Center
04:37PM 42.8806 -74.5767 103° East 274 315 11,000 -300 Descending Boston Center
04:38PM 42.8633 -74.4853 104° East 256 295 11,100  Climbing Boston Center
04:39PM 42.8486 -74.3828 101° East 259 298 11,000 -240 Descending Boston Center
04:40PM 42.8500 -74.2981 89° East 255 293 10,700 -540 Descending Boston Center
04:41PM 42.8289 -74.1897 105° East 262 302 10,000 -1,020 Descending Boston Center
04:42PM 42.7756 -74.1231 137° Southeast 256 295 8,700 -1,560 Descending Boston Center
04:43PM 42.7225 -74.0567 137° Southeast 256 295 7,000 -1,800 Descending Boston Center
04:44PM 42.6858 -73.9822 124° Southeast 250 288 5,200 -1,680 Descending Boston Center
04:45PM 42.6597 -73.9167 118° Southeast 222 255 3,700 -1,260 Descending Boston Center
04:46PM 42.6481 -73.8431 102° East 202 232 2,700 -1,140 Descending Boston Center
04:48PM 42.6903 -73.8044 34° Northeast 149 171 1,300 -1,020 Descending Boston Center
04:49PM 42.7319 -73.8081 356° North 132 152 500 -840 Descending Boston Center